Time;durP1;ratioP1;P1;durP2;ratioP2;P2;SDS_P1;SDS_P2;PMS_P1;PMS_P2;Temp;Humidity;BMP_temperature;BMP_pressure;BME280_temperature;BME280_humidity;BME280_pressure;Samples;Min_cycle;Max_cycle;Signal;HPM_P1;HPM_P2
2022/07/30 00:04:24;;;;;;;2.78;2.42;;;;;;;20.74;56.88;96769.56;10230198;28;20447;-59
2022/07/30 00:09:44;;;;;;;2.35;2.15;;;;;;;20.74;56.85;96740.56;10232119;28;20051;-59
2022/07/30 00:15:04;;;;;;;2.63;2.42;;;;;;;20.75;56.98;96733.25;10230194;28;20052;-59
2022/07/30 00:20:24;;;;;;;2.50;2.30;;;;;;;20.74;56.91;96718.91;10208095;29;20055;-59
2022/07/30 00:25:43;;;;;;;2.42;2.22;;;;;;;20.75;56.93;96700.75;10231518;28;20514;-58
2022/07/30 00:31:02;;;;;;;2.47;2.28;;;;;;;20.74;56.93;96697.25;10231353;28;20057;-58
2022/07/30 00:36:22;;;;;;;2.58;2.38;;;;;;;20.75;56.93;96714.28;10218400;28;20063;-58
2022/07/30 00:42:00;;;;;;;2.33;2.13;;;;;;;20.74;57.00;96710.78;10218284;29;20460;-58
2022/07/30 00:47:20;;;;;;;5.20;2.55;;;;;;;20.73;56.98;96706.50;10230751;28;20063;-59
2022/07/30 00:52:40;;;;;;;2.30;2.08;;;;;;;20.73;56.95;96690.25;10217775;29;20063;-58
2022/07/30 00:58:00;;;;;;;2.50;2.30;;;;;;;20.76;56.99;96693.41;10217443;29;20210;-59
2022/07/30 01:03:19;;;;;;;2.35;2.15;;;;;;;20.74;57.08;96686.44;10230552;28;20059;-52
2022/07/30 01:08:39;;;;;;;2.50;2.08;;;;;;;20.76;57.03;96663.63;10217299;29;20060;-52
2022/07/30 01:13:59;;;;;;;1.90;1.80;;;;;;;20.75;57.09;96668.25;10207660;29;20059;-52
2022/07/30 01:25:23;;;;;;;2.05;1.90;;;;;;;20.75;57.13;96660.16;10216302;29;20114;-52
2022/07/30 01:30:44;;;;;;;2.20;2.00;;;;;;;20.76;57.18;96663.63;10215510;29;20060;-51
2022/07/30 01:36:07;;;;;;;1.90;1.80;;;;;;;20.75;57.16;96662.84;10215662;29;20057;-52
2022/07/30 01:41:27;;;;;;;2.10;1.90;;;;;;;20.76;57.13;96653.63;10201720;29;20060;-52
2022/07/30 01:46:47;;;;;;;2.38;1.92;;;;;;;20.74;57.17;96656.66;10201888;29;20060;-52
2022/07/30 01:52:07;;;;;;;1.80;1.70;;;;;;;20.76;57.34;96660.94;10227345;28;20040;-52
2022/07/30 01:57:27;;;;;;;2.20;2.00;;;;;;;20.76;57.36;96663.63;10213330;28;20047;-52
2022/07/30 02:02:46;;;;;;;2.20;2.00;;;;;;;20.74;57.18;96672.91;10215344;29;20412;-52
2022/07/30 02:08:11;;;;;;;1.88;1.77;;;;;;;20.75;57.19;96670.97;10199825;29;20056;-52
2022/07/30 02:13:40;;;;;;;2.05;1.88;;;;;;;20.76;57.24;96671.75;10200383;29;20059;-51
2022/07/30 02:19:05;;;;;;;1.90;1.80;;;;;;;20.75;57.17;96670.97;10208354;29;20067;-53
2022/07/30 02:24:27;;;;;;;2.05;1.85;;;;;;;20.75;57.35;96670.97;10199260;29;20055;-51
2022/07/30 02:29:48;;;;;;;1.80;1.70;;;;;;;20.76;57.24;96669.03;10213877;29;20408;-52
2022/07/30 02:35:13;;;;;;;2.15;1.80;;;;;;;20.74;57.16;96672.13;10222705;29;20107;-51
2022/07/30 02:40:32;;;;;;;2.20;2.00;;;;;;;20.76;57.17;96672.56;10213768;29;20126;-52
2022/07/30 02:45:52;;;;;;;2.25;1.80;;;;;;;20.74;57.24;96672.91;10199494;29;20051;-53
2022/07/30 02:51:15;;;;;;;2.30;2.03;;;;;;;20.76;57.18;96672.56;10198359;29;20047;-53
2022/07/30 02:56:35;;;;;;;2.00;1.90;;;;;;;20.76;57.25;96666.34;10213289;29;20064;-52
2022/07/30 03:01:55;;;;;;;1.90;1.80;;;;;;;20.76;57.28;96669.03;10198809;29;20056;-53
2022/07/30 03:07:15;;;;;;;1.90;1.80;;;;;;;20.76;57.28;96663.63;10211937;29;20444;-53
2022/07/30 03:12:36;;;;;;;2.28;1.80;;;;;;;20.76;57.31;96660.94;10211054;28;20562;-52
2022/07/30 03:17:55;;;;;;;1.70;1.60;;;;;;;20.75;57.31;96649.31;10212175;29;20068;-52
2022/07/30 03:23:17;;;;;;;2.17;1.73;;;;;;;20.76;57.35;96650.09;10198541;29;20059;-52
2022/07/30 03:28:39;;;;;;;1.83;1.70;;;;;;;20.75;57.31;96652.03;10198500;29;20060;-52
2022/07/30 03:33:58;;;;;;;1.83;1.73;;;;;;;20.75;57.35;96652.03;10212487;29;20144;-51
2022/07/30 03:39:18;;;;;;;1.83;1.70;;;;;;;20.76;57.28;96661.75;10217671;29;20408;-52
2022/07/30 03:44:37;;;;;;;1.73;1.58;;;;;;;20.75;57.37;96673.69;10220495;29;20064;-52
2022/07/30 03:49:59;;;;;;;1.55;1.45;;;;;;;20.74;57.29;96672.91;10218574;29;20420;-51
2022/07/30 03:55:19;;;;;;;1.60;1.50;;;;;;;20.74;57.37;96672.13;10219151;29;20126;-52
2022/07/30 04:00:39;;;;;;;1.70;1.60;;;;;;;20.75;57.43;96673.69;10205727;29;20059;-52
2022/07/30 04:05:59;;;;;;;1.50;1.40;;;;;;;20.74;57.35;96672.91;10232267;29;20055;-52
2022/07/30 04:11:19;;;;;;;1.83;1.63;;;;;;;20.75;57.37;96679.09;10228231;28;20464;-52
2022/07/30 04:17:02;;;;;;;1.75;1.65;;;;;;;20.74;57.29;96680.22;10204425;29;20092;-53
2022/07/30 04:22:27;;;;;;;1.70;1.60;;;;;;;20.74;57.37;96675.59;10216900;28;20056;-53
2022/07/30 04:27:47;;;;;;;1.60;1.50;;;;;;;20.74;57.44;96683.72;10199697;29;20062;-53
2022/07/30 04:33:07;;;;;;;2.00;1.38;;;;;;;20.74;57.44;96681.00;10231369;28;20055;-51
2022/07/30 04:38:46;;;;;;;1.48;1.38;;;;;;;20.74;57.44;96680.22;10215038;29;20055;-52
2022/07/30 04:44:06;;;;;;;1.50;1.40;;;;;;;20.75;57.50;96689.91;10217231;29;20056;-52
2022/07/30 04:49:32;;;;;;;1.55;1.45;;;;;;;20.75;57.38;96684.50;10215608;28;20114;-52
2022/07/30 04:54:55;;;;;;;1.65;1.55;;;;;;;20.75;57.44;96692.63;10203198;29;20066;-51
2022/07/30 05:00:15;;;;;;;1.60;1.50;;;;;;;20.74;57.42;96685.66;10191400;29;20059;-52
2022/07/30 05:05:35;;;;;;;2.20;1.52;;;;;;;20.74;57.42;96691.06;10228458;28;20052;-53
2022/07/30 05:10:55;;;;;;;1.50;1.40;;;;;;;20.75;57.46;96689.91;10214940;28;20496;-53
2022/07/30 05:16:15;;;;;;;1.67;1.58;;;;;;;20.74;57.46;96691.84;10198617;29;20062;-51
2022/07/30 05:21:35;;;;;;;1.60;1.50;;;;;;;20.74;57.54;96689.13;10202440;29;20173;-52
2022/07/30 05:26:54;;;;;;;1.67;1.58;;;;;;;20.74;57.55;96686.44;10189159;29;20056;-52
2022/07/30 05:32:15;;;;;;;1.80;1.70;;;;;;;20.75;57.49;96689.91;10202122;29;20059;-53
2022/07/30 05:37:35;;;;;;;1.60;1.50;;;;;;;20.75;57.53;96692.63;10202146;29;20416;-52
2022/07/30 05:42:55;;;;;;;1.90;1.80;;;;;;;20.73;57.50;96690.25;10200984;29;20063;-52
2022/07/30 05:48:14;;;;;;;1.65;1.55;;;;;;;20.76;57.49;96696.13;10200951;29;20059;-52
2022/07/30 05:53:34;;;;;;;1.83;1.65;;;;;;;20.76;57.60;96693.41;10209837;28;20055;-53
2022/07/30 05:59:03;;;;;;;1.90;1.80;;;;;;;20.74;57.40;96697.25;10227334;28;20413;-52
2022/07/30 06:04:42;;;;;;;1.60;1.50;;;;;;;20.74;57.59;96704.59;10227757;28;20522;-52
2022/07/30 06:10:03;;;;;;;1.80;1.70;;;;;;;20.75;57.55;96706.16;10226951;29;20055;-51
2022/07/30 06:15:23;;;;;;;1.88;1.77;;;;;;;20.74;57.56;96702.69;10225667;28;20107;-52
2022/07/30 06:20:42;;;;;;;1.88;1.77;;;;;;;20.74;57.56;96699.97;10214253;29;20563;-52
2022/07/30 06:26:10;;;;;;;1.70;1.60;;;;;;;20.74;57.67;96708.09;10212566;29;20075;-52
2022/07/30 06:31:29;;;;;;;1.80;1.70;;;;;;;20.74;57.59;96710.78;10199945;29;20055;-53
2022/07/30 06:36:49;;;;;;;1.70;1.60;;;;;;;20.74;57.66;96699.97;10200153;29;20051;-52
2022/07/30 06:42:13;;;;;;;1.90;1.80;;;;;;;20.74;57.67;96707.31;10202453;29;20071;-51
2022/07/30 06:48:11;;;;;;;1.83;1.73;;;;;;;20.74;57.69;96704.59;10126114;29;20065;-52
2022/07/30 06:53:31;;;;;;;2.58;1.75;;;;;;;20.74;57.61;96713.50;10198054;29;20416;-52
2022/07/30 06:59:03;;;;;;;1.60;1.50;;;;;;;20.74;57.66;96710.78;10213471;29;20127;-52
2022/07/30 07:04:41;;;;;;;1.77;1.67;;;;;;;20.73;57.74;96709.19;10214273;28;20055;-52
2022/07/30 07:10:01;;;;;;;1.85;1.75;;;;;;;20.74;57.67;96710.78;10198707;29;20299;-52
2022/07/30 07:15:42;;;;;;;1.70;1.60;;;;;;;20.73;57.57;96711.91;10198747;29;20401;-51
2022/07/30 07:21:07;;;;;;;1.73;1.63;;;;;;;20.75;57.62;96722.41;10198796;29;20060;-52
2022/07/30 07:26:27;;;;;;;1.70;1.60;;;;;;;20.74;57.72;96726.25;10212954;29;20067;-52
2022/07/30 07:31:46;;;;;;;1.83;1.73;;;;;;;20.74;57.68;96720.84;10198446;29;20055;-52
2022/07/30 07:37:06;;;;;;;1.80;1.63;;;;;;;20.73;57.73;96722.72;10199163;29;20054;-51
2022/07/30 07:42:26;;;;;;;1.60;1.50;;;;;;;20.73;57.74;96725.44;10212365;29;20176;-53
2022/07/30 07:47:48;;;;;;;1.55;1.45;;;;;;;20.74;57.67;96727.03;10197732;29;20122;-52
2022/07/30 07:53:14;;;;;;;1.90;1.80;;;;;;;20.74;57.81;96727.03;10197939;29;20083;-51
2022/07/30 07:58:34;;;;;;;1.73;1.63;;;;;;;20.74;57.79;96732.44;10210519;29;20500;-52
2022/07/30 08:03:54;;;;;;;1.90;1.80;;;;;;;20.74;57.81;96737.09;10197805;29;20056;-52
2022/07/30 08:09:48;;;;;;;1.98;1.88;;;;;;;20.73;57.74;96736.28;10202206;29;20056;-52
2022/07/30 08:15:30;;;;;;;1.65;1.55;;;;;;;20.74;57.66;96737.09;10180101;29;20059;-52
2022/07/30 08:21:25;;;;;;;1.70;1.60;;;;;;;20.75;57.88;96735.94;10147798;29;20427;-52
2022/07/30 08:26:44;;;;;;;1.65;1.55;;;;;;;20.74;57.80;96737.09;10204655;29;20083;-53
2022/07/30 08:32:05;;;;;;;1.70;1.60;;;;;;;20.73;57.86;96738.97;10204473;29;20115;-52
2022/07/30 08:37:27;;;;;;;1.90;1.80;;;;;;;20.73;57.83;96736.28;10217266;29;20555;-52
2022/07/30 08:42:47;;;;;;;1.77;1.67;;;;;;;20.73;57.87;96732.78;10216382;29;20520;-51
2022/07/30 08:48:09;;;;;;;1.88;1.73;;;;;;;20.73;57.85;96738.19;10204027;29;20122;-53
2022/07/30 08:53:37;;;;;;;1.80;1.70;;;;;;;20.73;57.90;96738.97;10206312;29;20051;-52
2022/07/30 08:58:58;;;;;;;1.70;1.60;;;;;;;20.75;57.91;96741.34;10216632;29;20440;-52
2022/07/30 09:04:18;;;;;;;1.75;1.65;;;;;;;20.75;57.88;96749.47;10202789;29;20052;-52
2022/07/30 09:09:39;;;;;;;1.75;1.65;;;;;;;20.74;57.87;96751.41;10217015;29;20496;-52
2022/07/30 09:15:11;;;;;;;1.70;1.60;;;;;;;20.75;57.90;96744.06;10217003;29;20055;-52
2022/07/30 09:20:34;;;;;;;1.75;1.65;;;;;;;20.74;57.93;96735.16;10204301;29;20051;-52
2022/07/30 09:25:58;;;;;;;1.58;1.48;;;;;;;20.74;58.02;96732.44;10228470;29;20059;-52
2022/07/30 09:31:55;;;;;;;1.60;1.50;;;;;;;20.76;57.92;96740.25;10216064;29;20060;-51
2022/07/30 09:37:40;;;;;;;1.70;1.52;;;;;;;20.76;57.85;96740.25;10203703;29;20063;-52
2022/07/30 09:43:27;;;;;;;1.70;1.60;;;;;;;20.77;57.97;96735.63;10216104;29;20122;-52
2022/07/30 09:48:50;;;;;;;1.90;1.80;;;;;;;20.77;57.96;96738.31;10214432;29;20055;-53
2022/07/30 09:54:09;;;;;;;1.63;1.52;;;;;;;20.77;58.01;96741.03;10201474;29;20051;-52
2022/07/30 09:59:30;;;;;;;1.90;1.80;;;;;;;20.78;58.11;96742.59;10211342;28;20052;-52
2022/07/30 10:04:50;;;;;;;1.90;1.80;;;;;;;20.78;58.11;96739.88;10203817;29;20066;-52
2022/07/30 10:10:10;;;;;;;1.85;1.75;;;;;;;20.78;58.12;96739.88;10187496;29;20298;-52
2022/07/30 10:15:35;;;;;;;2.00;1.90;;;;;;;20.78;58.14;96739.88;10195615;28;20108;-51
2022/07/30 10:20:57;;;;;;;2.08;1.88;;;;;;;20.79;58.02;96746.91;10199981;28;20484;-51
2022/07/30 10:26:36;;;;;;;1.70;1.60;;;;;;;20.78;58.20;96745.31;10214670;29;20187;-52
2022/07/30 10:32:22;;;;;;;2.00;1.80;;;;;;;20.78;58.08;96742.59;10227111;28;20059;-52
2022/07/30 10:37:47;;;;;;;2.05;1.95;;;;;;;20.78;58.17;96737.19;10214981;29;20562;-52
2022/07/30 10:43:51;;;;;;;1.83;1.73;;;;;;;20.78;58.21;96731.78;10211877;29;20083;-52
2022/07/30 10:49:13;;;;;;;1.80;1.70;;;;;;;20.77;58.27;96730.19;10219387;28;20059;-52
2022/07/30 10:54:32;;;;;;;1.83;1.73;;;;;;;20.78;58.30;96729.06;10213574;29;20052;-52
2022/07/30 10:59:54;;;;;;;2.28;2.08;;;;;;;20.78;58.31;96731.78;10213264;29;20063;-52
2022/07/30 11:05:17;;;;;;;1.92;1.83;;;;;;;20.80;58.53;96753.91;10213430;29;20059;-52
2022/07/30 11:10:40;;;;;;;2.10;2.00;;;;;;;20.78;58.30;96738.00;10213096;29;20064;-52
2022/07/30 11:16:00;;;;;;;2.00;1.90;;;;;;;20.79;58.33;96738.78;10212871;29;20067;-51
2022/07/30 11:21:20;;;;;;;1.90;1.80;;;;;;;20.79;58.38;96738.78;10212982;29;20068;-52
2022/07/30 11:26:45;;;;;;;2.08;1.88;;;;;;;20.79;58.42;96744.19;10212644;29;20056;-52
2022/07/30 11:32:28;;;;;;;2.00;1.90;;;;;;;20.80;58.35;96746.56;10217819;29;20051;-53
2022/07/30 11:38:07;;;;;;;2.10;1.90;;;;;;;20.81;58.35;96752.78;10212549;29;20135;-52
2022/07/30 11:43:32;;;;;;;2.08;1.98;;;;;;;20.81;58.41;96739.25;10212336;29;20070;-52
2022/07/30 11:48:55;;;;;;;2.30;2.10;;;;;;;20.81;58.49;96741.94;10211722;29;20067;-53
2022/07/30 11:54:14;;;;;;;2.22;2.03;;;;;;;20.80;58.45;96743.09;10212380;29;20051;-52
2022/07/30 11:59:54;;;;;;;1.88;1.77;;;;;;;20.80;58.33;96748.50;10228750;29;20114;-51
2022/07/30 12:05:15;;;;;;;2.00;1.90;;;;;;;20.80;58.42;96743.88;10232930;28;20051;-52
2022/07/30 12:10:35;;;;;;;2.10;2.00;;;;;;;20.81;58.48;96741.94;10229139;29;20047;-52
2022/07/30 12:15:54;;;;;;;2.00;1.90;;;;;;;20.82;58.48;96740.84;10228690;29;20052;-52
2022/07/30 12:21:17;;;;;;;2.30;2.10;;;;;;;20.81;58.49;96741.94;10219346;29;20083;-53
2022/07/30 12:26:37;;;;;;;2.20;2.10;;;;;;;20.81;58.60;96742.72;10218952;29;20074;-53
2022/07/30 12:31:56;;;;;;;2.03;1.92;;;;;;;20.82;58.52;96732.72;10218842;29;20063;-51
2022/07/30 12:37:17;;;;;;;2.00;1.90;;;;;;;20.82;58.54;96733.50;10204624;29;20052;-51
2022/07/30 12:42:37;;;;;;;1.92;1.83;;;;;;;20.82;58.50;96728.09;10231086;28;20448;-51
2022/07/30 12:47:58;;;;;;;2.30;2.10;;;;;;;20.83;58.57;96734.28;10217496;29;20059;-52
2022/07/30 12:53:17;;;;;;;2.35;2.20;;;;;;;20.83;58.57;96739.69;10230735;28;20401;-52
2022/07/30 12:58:39;;;;;;;2.33;2.13;;;;;;;20.83;58.51;96753.22;10230317;28;20040;-53
2022/07/30 13:04:04;;;;;;;2.20;2.10;;;;;;;20.82;58.48;96754.38;10217728;29;20408;-52
2022/07/30 13:09:23;;;;;;;2.28;2.10;;;;;;;20.83;58.46;96758.66;10216211;29;20068;-52
2022/07/30 13:14:42;;;;;;;2.17;1.98;;;;;;;20.84;58.48;96762.94;10217313;29;20060;-52
2022/07/30 13:20:02;;;;;;;2.30;2.10;;;;;;;20.84;58.47;96757.53;10229569;29;20056;-51
2022/07/30 13:25:22;;;;;;;2.30;2.10;;;;;;;20.84;58.64;96757.53;10216594;29;20055;-51
2022/07/30 13:30:42;;;;;;;2.45;2.25;;;;;;;20.84;58.59;96754.81;10216664;29;20063;-52
2022/07/30 13:36:02;;;;;;;2.08;1.98;;;;;;;20.84;58.52;96761.03;10229044;28;20058;-52
2022/07/30 13:41:21;;;;;;;2.40;2.20;;;;;;;20.86;58.58;96755.28;10240721;28;20550;-52
2022/07/30 13:46:41;;;;;;;2.60;2.40;;;;;;;20.86;58.69;96756.06;10216132;29;20070;-53
2022/07/30 13:52:01;;;;;;;2.58;2.38;;;;;;;20.86;58.65;96764.19;10215339;29;20062;-52
2022/07/30 13:57:20;;;;;;;2.30;2.20;;;;;;;20.85;58.60;96765.31;10215715;29;20425;-52
2022/07/30 14:02:40;;;;;;;2.25;2.05;;;;;;;20.86;58.64;96766.91;10215382;29;20071;-52
2022/07/30 14:07:59;;;;;;;2.90;2.60;;;;;;;20.85;58.77;96754.47;10203547;29;20063;-52
2022/07/30 14:13:19;;;;;;;2.70;2.50;;;;;;;20.86;58.61;96761.47;10214505;29;20564;-51
2022/07/30 14:18:38;;;;;;;2.40;2.30;;;;;;;20.86;58.71;96756.06;10217554;28;20043;-51
2022/07/30 14:23:58;;;;;;;2.80;2.60;;;;;;;20.86;58.69;96758.78;10213760;29;20055;-53
2022/07/30 14:29:17;;;;;;;2.80;2.40;;;;;;;20.86;58.64;96756.06;10227227;28;20508;-52
2022/07/30 14:34:37;;;;;;;2.95;2.75;;;;;;;20.86;58.61;96755.28;10214205;29;20116;-52
2022/07/30 14:39:56;;;;;;;2.40;2.30;;;;;;;20.87;58.64;96762.28;10213941;29;20189;-52
2022/07/30 14:45:16;;;;;;;2.85;2.65;;;;;;;20.87;58.67;96764.97;10202015;29;20055;-52
2022/07/30 14:50:35;;;;;;;2.80;2.60;;;;;;;20.87;58.62;96760.34;10213589;29;20401;-51
2022/07/30 14:55:54;;;;;;;2.70;2.50;;;;;;;20.87;58.68;96773.88;10226258;28;20044;-51
2022/07/30 15:01:14;;;;;;;2.63;2.42;;;;;;;20.88;58.72;96770.06;10213365;29;20107;-53
2022/07/30 15:06:34;;;;;;;2.60;2.40;;;;;;;20.87;58.64;96773.09;10213509;29;20063;-51
2022/07/30 15:11:54;;;;;;;2.88;2.67;;;;;;;20.88;58.62;96775.47;10213295;29;20055;-52
2022/07/30 15:17:14;;;;;;;3.10;2.90;;;;;;;20.88;58.74;96775.47;10213172;29;20091;-51
2022/07/30 15:22:34;;;;;;;2.70;2.50;;;;;;;20.88;58.64;96778.19;10225516;29;20052;-52
2022/07/30 15:27:54;;;;;;;3.30;3.00;;;;;;;20.89;58.67;96777.03;10212480;29;20060;-51
2022/07/30 15:33:13;;;;;;;2.85;2.65;;;;;;;20.88;58.66;96785.53;10216849;29;20181;-52
2022/07/30 15:38:32;;;;;;;2.55;2.45;;;;;;;20.88;58.68;96790.94;10220844;29;20059;-52
2022/07/30 15:43:51;;;;;;;3.00;2.80;;;;;;;20.89;58.65;96797.94;10233500;28;20044;-52
2022/07/30 15:49:10;;;;;;;2.78;2.58;;;;;;;20.87;58.55;96800.97;10220460;29;20222;-51
2022/07/30 15:54:30;;;;;;;2.85;2.65;;;;;;;20.87;58.47;96805.59;10220058;29;20056;-52
2022/07/30 15:59:49;;;;;;;3.50;3.20;;;;;;;20.88;58.38;96801.78;10226850;28;20188;-51
2022/07/30 16:05:10;;;;;;;3.05;2.85;;;;;;;20.89;58.45;96819.59;10219836;29;20119;-52
2022/07/30 16:10:29;;;;;;;3.20;3.00;;;;;;;20.88;58.46;96818.03;10232430;28;20059;-53
2022/07/30 16:15:48;;;;;;;3.38;3.08;;;;;;;20.87;58.50;96817.22;10228463;28;20060;-52
2022/07/30 16:21:08;;;;;;;3.40;3.13;;;;;;;20.88;58.44;96818.81;10219234;29;20123;-52
2022/07/30 16:26:28;;;;;;;3.22;3.03;;;;;;;20.88;58.57;96818.81;10218961;29;20062;-53
2022/07/30 16:31:48;;;;;;;3.25;3.05;;;;;;;20.88;58.64;96829.63;10219032;29;20103;-52
2022/07/30 16:37:08;;;;;;;3.30;3.03;;;;;;;20.87;58.37;96827.25;10218749;29;20067;-52
2022/07/30 16:42:28;;;;;;;3.22;3.03;;;;;;;20.88;58.39;96831.56;10217494;29;20492;-51
2022/07/30 16:47:47;;;;;;;3.30;3.00;;;;;;;20.88;58.43;96847.81;10230882;29;20408;-52
2022/07/30 16:53:08;;;;;;;3.08;2.88;;;;;;;20.88;58.43;96837.75;10218168;29;20076;-52
2022/07/30 16:58:28;;;;;;;3.00;2.80;;;;;;;20.88;58.39;96842.38;10207944;29;20103;-52
2022/07/30 17:03:47;;;;;;;2.85;2.65;;;;;;;20.88;58.32;96851.31;10217605;29;20103;-52
2022/07/30 17:09:06;;;;;;;3.10;2.90;;;;;;;20.87;58.42;96862.47;10224770;28;20424;-51
2022/07/30 17:14:26;;;;;;;2.90;2.70;;;;;;;20.88;58.34;96866.75;10228588;28;20139;-53
2022/07/30 17:19:45;;;;;;;2.85;2.65;;;;;;;20.87;58.25;96867.88;10229828;28;20048;-52
2022/07/30 17:25:05;;;;;;;3.47;3.17;;;;;;;20.88;58.37;96883.00;10217092;29;20054;-52
2022/07/30 17:30:26;;;;;;;3.10;2.90;;;;;;;20.87;58.25;96889.53;10215967;29;20055;-52
2022/07/30 17:35:46;;;;;;;3.42;3.13;;;;;;;20.86;58.27;96891.47;10216207;29;20567;-52
2022/07/30 17:41:06;;;;;;;3.10;2.90;;;;;;;20.87;58.33;96908.50;10228936;28;20048;-52
2022/07/30 17:46:26;;;;;;;3.10;2.90;;;;;;;20.86;58.26;96902.28;10201829;29;20061;-52
2022/07/30 17:51:45;;;;;;;3.10;2.90;;;;;;;20.87;58.21;96903.84;10215811;29;20110;-53
2022/07/30 17:57:04;;;;;;;2.90;2.70;;;;;;;20.88;58.09;96907.38;10215465;29;20051;-51
2022/07/30 18:02:24;;;;;;;3.30;3.10;;;;;;;20.87;58.24;96908.50;10215537;29;20055;-51
2022/07/30 18:07:43;;;;;;;2.78;2.58;;;;;;;20.86;58.25;96913.13;10215618;29;20102;-51
2022/07/30 18:13:03;;;;;;;3.15;2.95;;;;;;;20.87;58.25;96927.44;10202233;29;20048;-51
2022/07/30 18:18:23;;;;;;;2.85;2.65;;;;;;;20.86;58.28;96923.94;10208290;29;20064;-52
2022/07/30 18:23:42;;;;;;;3.03;2.80;;;;;;;20.87;58.24;96922.03;10214012;29;20571;-51
2022/07/30 18:29:03;;;;;;;2.90;2.70;;;;;;;20.85;58.25;96930.47;10213947;29;20435;-52
2022/07/30 18:34:23;;;;;;;3.50;3.20;;;;;;;20.86;58.29;96936.69;10198986;29;20102;-52
2022/07/30 18:39:42;;;;;;;3.35;3.10;;;;;;;20.85;58.38;96938.59;10222641;29;20058;-52
2022/07/30 18:45:01;;;;;;;2.95;2.75;;;;;;;20.86;58.08;96939.41;10214803;29;20064;-52
2022/07/30 18:50:21;;;;;;;3.00;2.80;;;;;;;20.85;58.22;96944.00;10213977;29;20086;-52
2022/07/30 18:55:41;;;;;;;3.03;2.83;;;;;;;20.86;58.32;96944.81;10226038;28;20515;-52
2022/07/30 19:01:00;;;;;;;3.10;2.90;;;;;;;20.85;58.31;96949.44;10211266;29;20059;-52
2022/07/30 19:06:19;;;;;;;3.15;2.95;;;;;;;20.86;58.28;96955.66;10225647;28;20055;-52
2022/07/30 19:11:41;;;;;;;3.40;3.10;;;;;;;20.85;58.32;96960.25;10212355;29;20056;-52
2022/07/30 19:17:00;;;;;;;3.38;3.08;;;;;;;20.85;58.29;96959.47;10212602;29;20063;-52
2022/07/30 19:22:19;;;;;;;3.33;3.10;;;;;;;20.85;58.33;96962.19;10213059;29;20051;-52
2022/07/30 19:27:40;;;;;;;2.85;2.65;;;;;;;20.84;58.26;96960.63;10225558;28;20538;-51
2022/07/30 19:33:04;;;;;;;3.10;2.90;;;;;;;20.85;58.31;96970.31;10212764;29;20515;-52
2022/07/30 19:38:24;;;;;;;2.97;2.78;;;;;;;20.85;58.37;96954.84;10198551;29;20419;-52
2022/07/30 19:43:44;;;;;;;2.92;2.70;;;;;;;20.84;58.29;96958.69;10206448;29;20055;-53
2022/07/30 19:49:04;;;;;;;3.45;3.00;;;;;;;20.84;58.36;96961.41;10212374;29;20079;-52
2022/07/30 19:54:23;;;;;;;3.08;2.88;;;;;;;20.85;58.34;96962.19;10195266;29;20052;-50
2022/07/30 19:59:44;;;;;;;3.58;3.03;;;;;;;20.84;58.22;96966.03;10205329;29;20078;-52
2022/07/30 20:05:04;;;;;;;3.13;2.92;;;;;;;20.85;58.32;96956.75;10212220;29;20052;-52
2022/07/30 20:10:23;;;;;;;2.85;2.65;;;;;;;20.84;58.20;96958.69;10224750;29;20419;-51
2022/07/30 20:15:43;;;;;;;3.25;3.05;;;;;;;20.84;58.23;96961.41;10212132;29;20054;-51
2022/07/30 20:21:03;;;;;;;3.50;3.20;;;;;;;20.84;58.24;96960.63;10216943;29;20059;-53
2022/07/30 20:26:26;;;;;;;3.20;3.00;;;;;;;20.84;58.14;96957.91;10219031;29;20047;-52
2022/07/30 20:31:46;;;;;;;2.80;2.60;;;;;;;20.84;58.26;96958.69;10219131;29;20051;-52
2022/07/30 20:37:05;;;;;;;3.00;2.70;;;;;;;20.84;58.11;96960.63;10218929;29;20064;-52
2022/07/30 20:42:25;;;;;;;3.38;3.10;;;;;;;20.82;58.17;96958.22;10218378;29;20059;-51
2022/07/30 20:47:44;;;;;;;2.85;2.65;;;;;;;20.83;58.14;96964.44;10218380;29;20060;-51
2022/07/30 20:53:04;;;;;;;3.17;2.90;;;;;;;20.83;58.12;96964.44;10219138;29;20122;-52
2022/07/30 20:58:24;;;;;;;2.85;2.65;;;;;;;20.83;58.10;96973.34;10207556;29;20063;-52
2022/07/30 21:03:44;;;;;;;3.05;2.78;;;;;;;20.83;58.02;96978.75;10217756;29;20382;-52
2022/07/30 21:09:04;;;;;;;3.10;2.90;;;;;;;20.84;58.04;96979.56;10230388;29;20059;-52
2022/07/30 21:14:24;;;;;;;3.13;2.83;;;;;;;20.83;58.04;96988.78;10205383;29;20052;-52
2022/07/30 21:19:44;;;;;;;3.25;2.70;;;;;;;20.82;58.09;96988.00;10216774;29;20060;-53
2022/07/30 21:25:03;;;;;;;2.88;2.60;;;;;;;20.82;58.00;96988.00;10217057;29;20051;-52
2022/07/30 21:30:23;;;;;;;2.95;2.75;;;;;;;20.82;58.09;96992.63;10229107;28;20048;-52
2022/07/30 21:35:43;;;;;;;2.70;2.50;;;;;;;20.83;57.93;96999.63;10219699;28;20110;-51
2022/07/30 21:41:02;;;;;;;2.80;2.60;;;;;;;20.83;57.96;97002.34;10216249;29;20059;-51
2022/07/30 21:46:21;;;;;;;2.75;2.55;;;;;;;20.83;57.91;97005.03;10216439;29;20138;-52
2022/07/30 21:51:41;;;;;;;3.50;2.70;;;;;;;20.82;57.90;97006.97;10216210;29;20121;-52
2022/07/30 21:57:00;;;;;;;2.85;2.65;;;;;;;20.81;57.94;97002.66;10215730;29;20055;-51
2022/07/30 22:02:19;;;;;;;2.45;2.35;;;;;;;20.82;57.86;97003.47;10215890;29;20062;-52
2022/07/30 22:07:39;;;;;;;2.70;2.50;;;;;;;20.81;57.70;96999.16;10224495;29;20056;-52
2022/07/30 22:12:58;;;;;;;2.67;2.47;;;;;;;20.80;57.79;96995.66;10216683;28;20475;-53
2022/07/30 22:18:20;;;;;;;2.85;2.65;;;;;;;20.81;57.76;97007.28;10218246;29;20048;-51
2022/07/30 22:23:39;;;;;;;2.67;2.47;;;;;;;20.81;57.66;96999.94;10214594;29;20114;-52
2022/07/30 22:28:59;;;;;;;2.70;2.50;;;;;;;20.79;57.72;96996.00;10227379;28;20052;-52
2022/07/30 22:34:19;;;;;;;2.97;2.78;;;;;;;20.80;57.74;96994.88;10227125;28;20056;-52
2022/07/30 22:39:38;;;;;;;2.80;2.60;;;;;;;20.81;57.63;96993.75;10214120;29;20452;-51
2022/07/30 22:44:57;;;;;;;3.13;2.60;;;;;;;20.80;57.65;96989.47;10214067;29;20048;-52
2022/07/30 22:50:16;;;;;;;2.90;2.70;;;;;;;20.80;57.57;97000.31;10203564;29;20064;-52
2022/07/30 22:55:36;;;;;;;2.90;2.70;;;;;;;20.81;57.63;97001.88;10213470;29;20067;-50
2022/07/30 23:00:56;;;;;;;3.50;2.45;;;;;;;20.79;57.59;96993.28;10213648;29;20060;-52
2022/07/30 23:06:16;;;;;;;3.00;2.60;;;;;;;20.79;57.65;96993.28;10225885;28;20051;-51
2022/07/30 23:11:36;;;;;;;3.00;2.70;;;;;;;20.78;57.46;96997.09;10213384;29;20052;-52
2022/07/30 23:16:55;;;;;;;2.83;2.60;;;;;;;20.79;57.57;96993.28;10221618;29;20059;-52
2022/07/30 23:22:15;;;;;;;2.80;2.60;;;;;;;20.79;57.39;96993.28;10213874;29;20063;-53
2022/07/30 23:27:35;;;;;;;2.80;2.60;;;;;;;20.78;57.54;96992.50;10203024;29;20075;-51
2022/07/30 23:32:55;;;;;;;2.90;2.70;;;;;;;20.78;57.44;96987.06;10213043;29;20067;-52
2022/07/30 23:38:14;;;;;;;2.78;2.58;;;;;;;20.77;57.46;96988.19;10212194;29;20070;-52
2022/07/30 23:43:34;;;;;;;2.83;2.63;;;;;;;20.77;57.47;96990.09;10217753;29;20062;-52
2022/07/30 23:48:54;;;;;;;2.72;2.53;;;;;;;20.77;57.40;96984.69;10211791;29;20051;-51
2022/07/30 23:54:13;;;;;;;3.00;2.80;;;;;;;20.77;57.49;96992.81;10229000;29;20062;-53
2022/07/30 23:59:32;;;;;;;2.70;2.50;;;;;;;20.77;57.42;96987.41;10220205;29;20063;-52
